createdAt,value
2018-05-26T00:01:16.317Z,19.10
2018-05-26T00:03:42.516Z,19.00
2018-05-26T00:06:09.487Z,19.00
2018-05-26T00:08:35.716Z,19.00
2018-05-26T00:11:02.316Z,18.90
2018-05-26T00:13:28.558Z,18.90
2018-05-26T00:15:55.202Z,18.90
2018-05-26T00:18:21.425Z,18.90
2018-05-26T00:20:47.659Z,18.80
2018-05-26T00:23:13.903Z,18.70
2018-05-26T00:25:40.176Z,18.70
2018-05-26T00:28:06.383Z,18.70
2018-05-26T00:30:32.579Z,18.70
2018-05-26T00:32:58.887Z,18.70
2018-05-26T00:35:25.248Z,18.70
2018-05-26T00:37:52.244Z,18.60
2018-05-26T00:40:18.493Z,18.60
2018-05-26T00:42:44.733Z,18.60
2018-05-26T00:45:11.029Z,18.40
2018-05-26T00:47:38.725Z,18.60
2018-05-26T00:50:04.937Z,18.50
2018-05-26T00:52:31.148Z,18.40
2018-05-26T00:54:57.372Z,18.50
2018-05-26T00:57:23.602Z,18.50
2018-05-26T00:59:53.149Z,18.30
2018-05-26T01:02:19.368Z,18.30
2018-05-26T01:04:45.614Z,18.30
2018-05-26T01:07:12.103Z,18.20
2018-05-26T01:09:38.323Z,18.30
2018-05-26T01:12:04.560Z,18.30
2018-05-26T01:14:30.848Z,18.30
2018-05-26T01:16:57.859Z,18.30
2018-05-26T01:19:24.112Z,18.20
2018-05-26T01:21:50.337Z,18.30
2018-05-26T01:24:16.557Z,18.10
2018-05-26T01:26:42.806Z,18.20
2018-05-26T01:29:09.780Z,18.00
2018-05-26T01:31:36.060Z,18.00
2018-05-26T01:34:02.345Z,18.10
2018-05-26T01:36:29.320Z,18.20
2018-05-26T01:38:56.256Z,18.20
2018-05-26T01:41:23.232Z,18.20
2018-05-26T01:43:49.441Z,18.20
2018-05-26T01:46:15.857Z,18.20
2018-05-26T01:48:42.065Z,18.20
2018-05-26T01:51:08.306Z,18.20
2018-05-26T01:53:34.563Z,18.20
2018-05-26T01:56:00.840Z,18.20
2018-05-26T01:58:27.856Z,18.20
2018-05-26T02:00:54.105Z,18.20
2018-05-26T02:03:20.348Z,18.20
2018-05-26T02:05:46.577Z,18.10
2018-05-26T02:08:12.856Z,18.20
2018-05-26T02:10:39.083Z,18.20
2018-05-26T02:13:05.313Z,18.20
2018-05-26T02:15:32.336Z,18.10
2018-05-26T02:17:58.584Z,18.10
2018-05-26T02:20:25.166Z,18.00
2018-05-26T02:22:51.404Z,18.10
2018-05-26T02:25:17.672Z,18.10
2018-05-26T02:27:43.878Z,18.10
2018-05-26T02:30:10.156Z,18.00
2018-05-26T02:32:36.512Z,18.00
2018-05-26T02:35:02.724Z,18.00
2018-05-26T02:37:28.980Z,18.00
2018-05-26T02:39:55.253Z,18.00
2018-05-26T02:42:21.509Z,18.00
2018-05-26T02:44:47.744Z,18.00
2018-05-26T02:47:13.989Z,17.90
2018-05-26T02:49:40.258Z,17.90
2018-05-26T02:52:06.869Z,17.90
2018-05-26T02:54:33.841Z,17.70
2018-05-26T02:57:00.096Z,17.70
2018-05-26T02:59:27.113Z,17.80
2018-05-26T03:01:53.364Z,17.80
2018-05-26T03:04:25.746Z,17.80
2018-05-26T03:06:58.257Z,17.70
2018-05-26T03:09:30.752Z,17.60
2018-05-26T03:12:03.164Z,17.50
2018-05-26T03:14:35.611Z,17.60
2018-05-26T03:17:01.861Z,17.60
2018-05-26T03:19:28.106Z,17.50
2018-05-26T03:21:54.332Z,17.60
2018-05-26T03:24:20.611Z,17.50
2018-05-26T03:26:46.864Z,17.50
2018-05-26T03:29:13.116Z,17.40
2018-05-26T03:31:39.530Z,17.40
2018-05-26T03:34:05.765Z,17.40
2018-05-26T03:36:32.008Z,17.40
2018-05-26T03:38:58.240Z,17.50
2018-05-26T03:41:24.457Z,17.40
2018-05-26T03:43:50.717Z,17.50
2018-05-26T03:46:16.923Z,17.50
2018-05-26T03:48:43.189Z,17.40
2018-05-26T03:51:10.188Z,17.60
2018-05-26T03:53:37.201Z,17.70
2018-05-26T03:56:15.639Z,17.70
2018-05-26T03:58:54.250Z,17.80
2018-05-26T04:01:20.532Z,17.70
2018-05-26T04:03:46.760Z,17.60
2018-05-26T04:06:13.000Z,17.60
2018-05-26T04:08:39.266Z,17.70
2018-05-26T04:11:05.475Z,17.90
2018-05-26T04:13:32.489Z,18.00
2018-05-26T04:15:59.471Z,18.20
2018-05-26T04:18:25.692Z,18.10
2018-05-26T04:20:51.925Z,18.20
2018-05-26T04:23:18.160Z,18.30
2018-05-26T04:25:44.387Z,18.30
2018-05-26T04:28:10.666Z,18.40
2018-05-26T04:30:37.671Z,18.60
2018-05-26T04:33:03.940Z,18.70
2018-05-26T04:35:30.229Z,18.60
2018-05-26T04:37:56.431Z,18.70
2018-05-26T04:40:23.428Z,18.60
2018-05-26T04:42:50.396Z,18.70
2018-05-26T04:45:16.675Z,18.70
2018-05-26T04:47:43.684Z,18.80
2018-05-26T04:50:09.925Z,18.80
2018-05-26T04:52:36.201Z,19.00
2018-05-26T04:55:02.455Z,19.00
2018-05-26T04:57:28.710Z,19.10
2018-05-26T04:59:54.937Z,19.30
2018-05-26T05:02:21.183Z,19.70
2018-05-26T05:04:47.392Z,20.20
2018-05-26T05:07:13.657Z,20.70
2018-05-26T05:09:39.886Z,21.10
2018-05-26T05:12:06.105Z,21.40
2018-05-26T05:14:32.364Z,21.90
2018-05-26T05:16:58.560Z,22.40
2018-05-26T05:19:24.813Z,22.70
2018-05-26T05:21:51.031Z,23.00
2018-05-26T05:24:17.269Z,23.20
2018-05-26T05:26:43.557Z,23.30
2018-05-26T05:29:09.760Z,23.30
2018-05-26T05:31:36.001Z,23.30
2018-05-26T05:34:02.567Z,23.30
2018-05-26T05:36:29.504Z,23.10
2018-05-26T05:38:56.472Z,23.00
2018-05-26T05:41:22.718Z,23.00
2018-05-26T05:43:48.944Z,22.90
2018-05-26T05:46:15.164Z,22.80
2018-05-26T05:48:42.154Z,22.50
2018-05-26T05:51:09.113Z,22.40
2018-05-26T05:53:35.472Z,22.40
2018-05-26T05:56:01.728Z,22.30
2018-05-26T05:58:28.728Z,21.90
2018-05-26T06:00:56.349Z,21.90
2018-05-26T06:03:22.580Z,21.60
2018-05-26T06:05:48.840Z,21.80
2018-05-26T06:08:15.057Z,21.80
2018-05-26T06:10:41.292Z,21.80
2018-05-26T06:13:07.508Z,21.70
2018-05-26T06:15:33.779Z,21.80
2018-05-26T06:18:00.715Z,21.90
2018-05-26T06:20:29.524Z,22.00
2018-05-26T06:22:56.478Z,22.00
2018-05-26T06:25:23.467Z,22.00
2018-05-26T06:27:49.847Z,22.00
2018-05-26T06:30:16.379Z,22.10
2018-05-26T06:32:42.596Z,22.10
2018-05-26T06:35:08.808Z,22.30
2018-05-26T06:37:35.806Z,22.40
2018-05-26T06:40:02.072Z,22.40
2018-05-26T06:42:28.283Z,22.70
2018-05-26T06:44:54.521Z,22.70
2018-05-26T06:47:22.309Z,22.80
2018-05-26T06:49:49.116Z,22.90
2018-05-26T06:52:16.120Z,22.70
2018-05-26T06:54:43.141Z,22.70
2018-05-26T06:57:10.233Z,22.90
2018-05-26T06:59:36.448Z,22.90
2018-05-26T07:02:02.660Z,23.10
2018-05-26T07:04:28.892Z,22.80
2018-05-26T07:06:55.115Z,23.00
2018-05-26T07:09:21.332Z,23.10
2018-05-26T07:11:47.572Z,23.20
2018-05-26T07:14:13.806Z,23.20
2018-05-26T07:16:43.822Z,23.10
2018-05-26T07:19:10.054Z,22.90
2018-05-26T07:21:36.308Z,22.90
2018-05-26T07:24:02.561Z,23.00
2018-05-26T07:26:28.862Z,23.10
2018-05-26T07:28:55.836Z,23.30
2018-05-26T07:31:22.804Z,23.50
2018-05-26T07:33:49.823Z,23.70
2018-05-26T07:36:16.705Z,23.80
2018-05-26T07:38:43.687Z,23.80
2018-05-26T07:41:09.930Z,23.70
2018-05-26T07:43:36.153Z,23.70
2018-05-26T07:46:03.320Z,23.80
2018-05-26T07:48:29.404Z,23.80
2018-05-26T07:50:55.608Z,23.90
2018-05-26T07:53:21.836Z,24.10
2018-05-26T07:55:48.576Z,24.10
2018-05-26T07:58:14.834Z,24.20
2018-05-26T08:00:41.295Z,24.30
2018-05-26T08:03:07.528Z,24.30
2018-05-26T08:05:34.472Z,24.50
2018-05-26T08:08:00.720Z,24.50
2018-05-26T08:10:26.936Z,24.70
2018-05-26T08:12:53.148Z,24.50
2018-05-26T08:15:19.360Z,24.40
2018-05-26T08:17:45.588Z,24.40
2018-05-26T08:20:11.964Z,24.60
2018-05-26T08:22:38.217Z,24.70
2018-05-26T08:25:04.920Z,24.70
2018-05-26T08:27:31.167Z,24.80
2018-05-26T08:29:57.387Z,24.90
2018-05-26T08:32:23.648Z,25.00
2018-05-26T08:34:50.609Z,25.20
2018-05-26T08:37:16.941Z,25.20
2018-05-26T08:39:43.164Z,25.00
2018-05-26T08:42:10.128Z,25.00
2018-05-26T08:44:36.358Z,25.00
2018-05-26T08:47:03.327Z,25.30
2018-05-26T08:49:29.559Z,25.30
2018-05-26T08:51:56.308Z,25.20
2018-05-26T08:54:22.540Z,25.30
2018-05-26T08:56:48.756Z,25.20
2018-05-26T08:59:15.005Z,25.10
2018-05-26T09:01:41.275Z,25.30
2018-05-26T09:04:08.249Z,25.20
2018-05-26T09:06:35.455Z,25.30
2018-05-26T09:09:02.840Z,25.40
2018-05-26T09:11:29.619Z,25.50
2018-05-26T09:13:55.648Z,25.40
2018-05-26T09:16:21.692Z,25.50
2018-05-26T09:18:47.760Z,25.50
2018-05-26T09:21:14.028Z,25.50
2018-05-26T09:23:40.268Z,25.50
2018-05-26T09:26:07.008Z,25.60
2018-05-26T09:28:33.254Z,25.70
2018-05-26T09:30:59.447Z,25.90
2018-05-26T09:33:25.684Z,25.90
2018-05-26T09:35:51.880Z,26.20
2018-05-26T09:38:19.272Z,26.50
2018-05-26T09:40:45.632Z,26.70
2018-05-26T09:43:11.959Z,26.90
2018-05-26T09:45:38.963Z,27.00
2018-05-26T09:48:05.176Z,27.00
2018-05-26T09:50:32.177Z,27.30
2018-05-26T09:52:58.370Z,27.30
2018-05-26T09:55:25.356Z,27.60
2018-05-26T09:57:51.512Z,27.60
2018-05-26T10:00:17.700Z,27.40
2018-05-26T10:02:44.673Z,27.60
2018-05-26T10:05:11.851Z,28.00
2018-05-26T10:07:37.935Z,27.90
2018-05-26T10:10:04.188Z,28.20
2018-05-26T10:12:33.021Z,28.30
2018-05-26T10:14:59.092Z,27.90
2018-05-26T10:17:25.220Z,27.70
2018-05-26T10:19:51.274Z,27.80
2018-05-26T10:22:18.065Z,28.40
2018-05-26T10:24:44.124Z,28.30
2018-05-26T10:27:11.634Z,28.90
2018-05-26T10:29:37.667Z,29.40
2018-05-26T10:32:03.736Z,29.50
2018-05-26T10:34:30.025Z,29.70
2018-05-26T10:36:56.246Z,29.80
2018-05-26T10:39:23.214Z,30.00
2018-05-26T10:41:49.251Z,29.90
2018-05-26T10:44:15.336Z,30.10
2018-05-26T10:46:45.146Z,30.20
2018-05-26T10:49:11.181Z,30.50
2018-05-26T10:51:37.239Z,30.20
2018-05-26T10:54:03.278Z,30.10
2018-05-26T10:56:29.428Z,30.00
2018-05-26T10:58:55.475Z,29.80
2018-05-26T11:01:22.258Z,29.50
2018-05-26T11:03:51.676Z,29.40
2018-05-26T11:06:18.252Z,29.30
2018-05-26T11:08:44.284Z,28.80
2018-05-26T11:11:10.336Z,28.70
2018-05-26T11:13:36.371Z,28.90
2018-05-26T11:16:02.655Z,28.80
2018-05-26T11:18:28.626Z,29.10
2018-05-26T11:20:54.651Z,29.30
2018-05-26T11:23:20.760Z,29.70
2018-05-26T11:25:46.912Z,29.90
2018-05-26T11:28:12.940Z,30.00
2018-05-26T11:30:39.800Z,30.80
2018-05-26T11:33:11.280Z,30.80
2018-05-26T11:35:37.401Z,30.80
2018-05-26T11:38:03.498Z,30.80
2018-05-26T11:40:29.542Z,31.00
2018-05-26T11:42:55.681Z,31.00
2018-05-26T11:45:22.476Z,30.40
2018-05-26T11:47:49.247Z,30.50
2018-05-26T11:50:15.298Z,30.40
2018-05-26T11:52:42.408Z,30.30
2018-05-26T11:55:09.227Z,29.60
2018-05-26T11:57:35.279Z,29.50
2018-05-26T12:00:02.089Z,29.80
2018-05-26T12:02:28.179Z,29.90
2018-05-26T12:04:54.224Z,30.10
2018-05-26T12:07:21.295Z,30.50
2018-05-26T12:09:48.118Z,30.30
2018-05-26T12:12:14.177Z,30.30
2018-05-26T12:14:40.240Z,30.50
2018-05-26T12:17:06.293Z,30.60
2018-05-26T12:19:32.348Z,30.80
2018-05-26T12:21:58.406Z,30.70
2018-05-26T12:24:24.467Z,30.50
2018-05-26T12:26:51.281Z,29.90
2018-05-26T12:29:17.448Z,29.90
2018-05-26T12:31:43.518Z,29.70
2018-05-26T12:34:09.896Z,29.80
2018-05-26T12:36:35.939Z,30.20
2018-05-26T12:39:02.045Z,30.30
2018-05-26T12:41:28.107Z,30.40
2018-05-26T12:43:54.216Z,30.70
2018-05-26T12:46:20.486Z,31.10
2018-05-26T12:48:46.563Z,31.00
2018-05-26T12:51:13.375Z,31.30
2018-05-26T12:53:39.425Z,31.20
2018-05-26T12:56:05.507Z,31.30
2018-05-26T12:58:31.588Z,31.40
2018-05-26T13:00:57.858Z,31.40
2018-05-26T13:03:24.136Z,31.50
2018-05-26T13:05:50.392Z,31.50
2018-05-26T13:08:16.665Z,31.40
2018-05-26T13:10:43.035Z,31.20
2018-05-26T13:13:09.271Z,31.10
2018-05-26T13:15:35.588Z,31.40
2018-05-26T13:18:01.846Z,31.50
2018-05-26T13:20:28.900Z,31.60
2018-05-26T13:22:55.196Z,31.80
2018-05-26T13:25:21.454Z,31.70
2018-05-26T13:27:47.867Z,31.60
2018-05-26T13:30:14.144Z,31.60
2018-05-26T13:32:40.421Z,31.80
2018-05-26T13:35:06.672Z,31.90
2018-05-26T13:37:32.911Z,31.80
2018-05-26T13:39:59.916Z,31.80
2018-05-26T13:42:26.160Z,31.70
2018-05-26T13:44:52.419Z,31.70
2018-05-26T13:47:18.670Z,31.90
2018-05-26T13:49:44.948Z,31.90
2018-05-26T13:52:11.280Z,31.90
2018-05-26T13:54:38.382Z,31.90
2018-05-26T13:57:09.282Z,31.90
2018-05-26T13:59:35.409Z,31.80
2018-05-26T14:02:01.451Z,31.80
2018-05-26T14:04:28.248Z,31.50
2018-05-26T14:06:55.040Z,31.40
2018-05-26T14:09:21.108Z,31.40
2018-05-26T14:11:47.160Z,31.50
2018-05-26T14:14:13.210Z,31.40
2018-05-26T14:16:41.568Z,31.50
2018-05-26T14:19:07.619Z,31.70
2018-05-26T14:21:33.680Z,31.70
2018-05-26T14:24:00.475Z,31.80
2018-05-26T14:26:26.560Z,31.80
2018-05-26T14:28:53.351Z,31.80
2018-05-26T14:31:20.141Z,31.80
2018-05-26T14:33:47.808Z,31.80
2018-05-26T14:36:16.195Z,32.00
2018-05-26T14:38:42.250Z,32.10
2018-05-26T14:41:08.333Z,31.90
2018-05-26T14:43:35.150Z,31.90
2018-05-26T14:46:01.249Z,31.90
2018-05-26T14:48:27.316Z,32.00
2018-05-26T14:50:53.369Z,32.10
2018-05-26T14:53:19.597Z,31.90
2018-05-26T14:55:45.852Z,31.90
2018-05-26T14:58:12.200Z,32.00
2018-05-26T15:00:38.517Z,31.90
2018-05-26T15:03:04.785Z,31.90
2018-05-26T15:05:31.041Z,31.50
2018-05-26T15:07:58.123Z,31.20
2018-05-26T15:10:24.395Z,31.10
2018-05-26T15:12:50.726Z,31.10
2018-05-26T15:15:16.898Z,31.20
2018-05-26T15:17:43.151Z,30.90
2018-05-26T15:20:09.452Z,30.80
2018-05-26T15:22:35.927Z,30.50
2018-05-26T15:25:02.220Z,30.50
2018-05-26T15:27:28.465Z,30.50
2018-05-26T15:29:54.764Z,30.50
2018-05-26T15:32:21.006Z,30.40
2018-05-26T15:34:47.373Z,30.40
2018-05-26T15:37:13.623Z,30.30
2018-05-26T15:39:40.616Z,30.10
2018-05-26T15:42:06.864Z,30.10
2018-05-26T15:44:33.117Z,30.00
2018-05-26T15:46:59.390Z,30.00
2018-05-26T15:49:26.368Z,29.90
2018-05-26T15:51:52.627Z,29.80
2018-05-26T15:54:18.984Z,29.70
2018-05-26T15:56:45.246Z,29.50
2018-05-26T15:59:12.449Z,29.70
2018-05-26T16:01:38.731Z,29.70
2018-05-26T16:04:05.746Z,29.70
2018-05-26T16:06:32.727Z,29.70
2018-05-26T16:08:59.035Z,29.60
2018-05-26T16:11:25.390Z,29.60
2018-05-26T16:13:51.699Z,29.50
2018-05-26T16:16:17.971Z,29.40
2018-05-26T16:18:44.267Z,29.50
2018-05-26T16:21:10.545Z,29.30
2018-05-26T16:23:37.551Z,28.90
2018-05-26T16:26:03.823Z,28.90
2018-05-26T16:28:30.084Z,28.90
2018-05-26T16:30:56.316Z,28.80
2018-05-26T16:33:22.560Z,28.70
2018-05-26T16:35:48.823Z,28.60
2018-05-26T16:38:15.083Z,28.50
2018-05-26T16:40:41.381Z,28.60
2018-05-26T16:43:08.395Z,28.50
2018-05-26T16:45:34.659Z,28.50
2018-05-26T16:48:00.990Z,28.50
2018-05-26T16:50:27.320Z,28.50
2018-05-26T16:52:53.579Z,28.60
2018-05-26T16:55:20.579Z,28.60
2018-05-26T16:57:46.824Z,28.60
2018-05-26T17:00:13.061Z,28.60
2018-05-26T17:02:39.300Z,28.60
2018-05-26T17:05:05.541Z,28.50
2018-05-26T17:07:32.635Z,28.60
2018-05-26T17:09:58.876Z,28.60
2018-05-26T17:12:25.126Z,28.50
2018-05-26T17:14:52.133Z,28.50
2018-05-26T17:17:18.399Z,28.50
2018-05-26T17:19:45.406Z,28.50
2018-05-26T17:22:11.675Z,28.50
2018-05-26T17:24:37.917Z,28.50
2018-05-26T17:27:04.187Z,28.50
2018-05-26T17:29:31.195Z,28.50
2018-05-26T17:31:57.507Z,28.50
2018-05-26T17:34:23.780Z,28.20
2018-05-26T17:36:50.317Z,28.20
2018-05-26T17:39:16.714Z,28.30
2018-05-26T17:41:43.795Z,28.20
2018-05-26T17:44:10.187Z,28.20
2018-05-26T17:46:37.283Z,27.90
2018-05-26T17:49:04.767Z,27.90
2018-05-26T17:51:31.450Z,27.90
2018-05-26T17:53:57.947Z,28.00
2018-05-26T17:56:25.046Z,28.00
2018-05-26T17:58:51.381Z,28.00
2018-05-26T18:01:17.747Z,27.90
2018-05-26T18:03:44.189Z,27.90
2018-05-26T18:06:10.508Z,28.00
2018-05-26T18:08:36.835Z,27.80
2018-05-26T18:11:03.924Z,27.80
2018-05-26T18:13:30.272Z,27.80
2018-05-26T18:15:56.665Z,27.80
2018-05-26T18:18:23.734Z,27.60
2018-05-26T18:20:50.839Z,27.50
2018-05-26T18:23:17.212Z,27.40
2018-05-26T18:25:43.561Z,27.40
2018-05-26T18:30:51.308Z,27.60
2018-05-26T18:33:18.339Z,27.50
2018-05-26T18:35:44.669Z,27.50
2018-05-26T18:38:10.924Z,27.40
2018-05-26T18:40:37.184Z,27.30
2018-05-26T18:43:03.452Z,27.40
2018-05-26T18:45:29.692Z,27.40
2018-05-26T18:47:59.245Z,27.20
2018-05-26T18:50:27.582Z,27.10
2018-05-26T18:52:53.855Z,27.20
2018-05-26T18:55:20.925Z,27.00
2018-05-26T18:57:47.913Z,26.90
2018-05-26T19:00:14.185Z,26.90
2018-05-26T19:02:40.441Z,26.90
2018-05-26T19:05:08.432Z,26.70
2018-05-26T19:07:34.700Z,26.90
2018-05-26T19:10:00.952Z,26.90
2018-05-26T19:12:27.212Z,26.90
2018-05-26T19:14:54.216Z,26.90
2018-05-26T19:17:20.493Z,26.90
2018-05-26T19:19:46.808Z,26.80
2018-05-26T19:22:16.088Z,26.70
2018-05-26T19:24:42.381Z,26.70
2018-05-26T19:27:08.632Z,26.70
2018-05-26T19:29:34.899Z,26.60
2018-05-26T19:32:01.895Z,26.60
2018-05-26T19:34:28.200Z,26.60
2018-05-26T19:36:55.239Z,26.40
2018-05-26T19:39:26.176Z,26.40
2018-05-26T19:41:52.274Z,26.40
2018-05-26T19:44:18.324Z,26.40
2018-05-26T19:46:44.406Z,26.30
2018-05-26T19:49:10.483Z,26.30
2018-05-26T19:51:36.565Z,26.30
2018-05-26T19:54:02.682Z,26.40
2018-05-26T19:56:28.792Z,26.30
2018-05-26T19:58:57.665Z,26.20
2018-05-26T20:01:23.754Z,26.20
2018-05-26T20:03:49.838Z,26.10
2018-05-26T20:06:16.635Z,25.90
2018-05-26T20:08:43.579Z,25.90
2018-05-26T20:11:09.655Z,25.90
2018-05-26T20:13:35.711Z,25.80
2018-05-26T20:16:01.785Z,25.80
2018-05-26T20:18:30.188Z,25.60
2018-05-26T20:20:56.272Z,25.60
2018-05-26T20:23:22.328Z,25.50
2018-05-26T20:25:48.384Z,25.30
2018-05-26T20:28:14.439Z,25.30
2018-05-26T20:30:40.492Z,25.20
2018-05-26T20:33:07.299Z,25.10
2018-05-26T20:35:33.355Z,25.00
2018-05-26T20:38:01.518Z,25.10
2018-05-26T20:40:30.140Z,24.90
2018-05-26T20:42:56.264Z,24.90
2018-05-26T20:45:22.327Z,24.70
2018-05-26T20:47:48.396Z,24.50
2018-05-26T20:50:15.183Z,24.70
2018-05-26T20:52:41.251Z,24.60
2018-05-26T20:55:07.334Z,24.70
2018-05-26T20:57:34.148Z,24.60
2018-05-26T21:00:01.666Z,24.60
2018-05-26T21:02:28.474Z,24.60
2018-05-26T21:04:54.556Z,24.60
2018-05-26T21:07:21.496Z,24.60
2018-05-26T21:09:47.931Z,24.60
2018-05-26T21:12:13.995Z,24.50
2018-05-26T21:14:40.795Z,24.40
2018-05-26T21:17:06.894Z,24.40
2018-05-26T21:19:35.811Z,24.50
2018-05-26T21:22:01.877Z,24.30
2018-05-26T21:24:27.948Z,24.20
2018-05-26T21:26:54.341Z,24.10
2018-05-26T21:29:20.395Z,24.10
2018-05-26T21:31:46.451Z,24.10
2018-05-26T21:34:12.618Z,24.00
2018-05-26T21:36:42.228Z,24.10
2018-05-26T21:39:09.384Z,24.00
2018-05-26T21:41:35.446Z,23.90
2018-05-26T21:44:01.517Z,23.80
2018-05-26T21:46:27.770Z,23.80
2018-05-26T21:48:53.867Z,23.80
2018-05-26T21:51:20.020Z,23.60
2018-05-26T21:53:46.173Z,23.50
2018-05-26T21:56:13.033Z,23.50
2018-05-26T21:58:42.071Z,23.40
2018-05-26T22:01:08.702Z,23.40
2018-05-26T22:03:35.275Z,23.40
2018-05-26T22:06:01.389Z,23.40
2018-05-26T22:08:28.187Z,23.40
2018-05-26T22:10:54.286Z,23.30
2018-05-26T22:13:20.359Z,23.30
2018-05-26T22:15:46.518Z,23.30
2018-05-26T22:18:12.780Z,23.30
2018-05-26T22:20:39.592Z,23.10
2018-05-26T22:23:05.674Z,23.10
2018-05-26T22:25:32.486Z,23.20
2018-05-26T22:27:59.298Z,23.20
2018-05-26T22:30:25.433Z,23.20
2018-05-26T22:32:51.511Z,23.20
2018-05-26T22:35:17.601Z,23.20
2018-05-26T22:37:44.400Z,23.20
2018-05-26T22:40:10.464Z,23.20
2018-05-26T22:42:36.550Z,23.00
2018-05-26T22:45:02.647Z,23.10
2018-05-26T22:47:28.715Z,23.00
2018-05-26T22:49:54.789Z,22.80
2018-05-26T22:52:20.920Z,22.90
2018-05-26T22:54:47.062Z,22.90
2018-05-26T22:57:13.127Z,22.90
2018-05-26T22:59:39.188Z,22.80
2018-05-26T23:02:05.989Z,22.60
2018-05-26T23:04:32.085Z,22.60
2018-05-26T23:06:59.019Z,22.40
2018-05-26T23:09:25.064Z,22.40
2018-05-26T23:11:51.863Z,22.40
2018-05-26T23:14:17.928Z,22.40
2018-05-26T23:16:44.207Z,22.40
2018-05-26T23:19:11.004Z,22.40
2018-05-26T23:21:37.169Z,22.50
2018-05-26T23:24:03.242Z,22.40
2018-05-26T23:26:30.111Z,22.20
2018-05-26T23:28:56.316Z,22.20
2018-05-26T23:31:22.376Z,22.10
2018-05-26T23:33:49.220Z,22.00
2018-05-26T23:36:16.032Z,22.00
2018-05-26T23:38:42.092Z,22.00
2018-05-26T23:41:08.202Z,21.90
2018-05-26T23:43:34.273Z,21.90
2018-05-26T23:46:00.356Z,21.90
2018-05-26T23:48:26.490Z,21.90
2018-05-26T23:50:52.553Z,21.80
2018-05-26T23:53:18.648Z,21.60
2018-05-26T23:55:45.475Z,21.40
2018-05-26T23:58:11.560Z,21.40
